sensor_id;sensor_type;location;lat;lon;timestamp;temperature;humidity
2621;DHT22;1320;48.128;11.592;2024-03-17T00:01:46;11.00;99.90
2621;DHT22;1320;48.128;11.592;2024-03-17T00:04:12;11.00;99.90
2621;DHT22;1320;48.128;11.592;2024-03-17T00:06:37;11.00;99.90
2621;DHT22;1320;48.128;11.592;2024-03-17T00:09:03;11.00;99.90
2621;DHT22;1320;48.128;11.592;2024-03-17T00:11:33;11.00;99.90
2621;DHT22;1320;48.128;11.592;2024-03-17T00:14:01;11.00;99.90
2621;DHT22;1320;48.128;11.592;2024-03-17T00:16:27;11.00;99.90
2621;DHT22;1320;48.128;11.592;2024-03-17T00:18:53;11.00;99.90
2621;DHT22;1320;48.128;11.592;2024-03-17T00:21:19;11.00;99.90
2621;DHT22;1320;48.128;11.592;2024-03-17T00:23:48;11.00;99.90
2621;DHT22;1320;48.128;11.592;2024-03-17T00:26:17;11.00;99.90
2621;DHT22;1320;48.128;11.592;2024-03-17T00:28:45;11.10;99.90
2621;DHT22;1320;48.128;11.592;2024-03-17T00:31:13;11.10;99.90
2621;DHT22;1320;48.128;11.592;2024-03-17T00:33:41;11.10;99.90
2621;DHT22;1320;48.128;11.592;2024-03-17T00:36:07;11.10;99.90
2621;DHT22;1320;48.128;11.592;2024-03-17T00:38:32;11.10;99.90
2621;DHT22;1320;48.128;11.592;2024-03-17T00:40:59;11.00;99.90
2621;DHT22;1320;48.128;11.592;2024-03-17T00:43:25;11.10;99.90
2621;DHT22;1320;48.128;11.592;2024-03-17T00:45:53;11.10;99.90
2621;DHT22;1320;48.128;11.592;2024-03-17T00:48:19;11.10;99.90
2621;DHT22;1320;48.128;11.592;2024-03-17T00:50:45;11.10;99.90
2621;DHT22;1320;48.128;11.592;2024-03-17T00:53:11;11.10;99.90
2621;DHT22;1320;48.128;11.592;2024-03-17T00:55:37;11.10;99.90
2621;DHT22;1320;48.128;11.592;2024-03-17T00:58:04;11.20;99.90
2621;DHT22;1320;48.128;11.592;2024-03-17T01:00:30;11.20;99.90
2621;DHT22;1320;48.128;11.592;2024-03-17T01:02:58;11.20;99.90
2621;DHT22;1320;48.128;11.592;2024-03-17T01:05:24;11.20;99.90
2621;DHT22;1320;48.128;11.592;2024-03-17T01:07:50;11.20;99.90
2621;DHT22;1320;48.128;11.592;2024-03-17T01:10:16;11.20;99.90
2621;DHT22;1320;48.128;11.592;2024-03-17T01:12:41;11.20;99.90
2621;DHT22;1320;48.128;11.592;2024-03-17T01:15:08;11.20;99.90
2621;DHT22;1320;48.128;11.592;2024-03-17T01:17:34;11.20;99.90
2621;DHT22;1320;48.128;11.592;2024-03-17T01:19:59;11.20;99.90
2621;DHT22;1320;48.128;11.592;2024-03-17T01:22:25;11.30;99.90
2621;DHT22;1320;48.128;11.592;2024-03-17T01:24:51;11.30;99.90
2621;DHT22;1320;48.128;11.592;2024-03-17T01:27:17;11.30;99.90
2621;DHT22;1320;48.128;11.592;2024-03-17T01:29:43;11.30;99.90
2621;DHT22;1320;48.128;11.592;2024-03-17T01:32:09;11.20;99.90
2621;DHT22;1320;48.128;11.592;2024-03-17T01:34:37;11.20;99.90
2621;DHT22;1320;48.128;11.592;2024-03-17T01:37:02;11.20;99.90
2621;DHT22;1320;48.128;11.592;2024-03-17T01:39:28;11.20;99.90
2621;DHT22;1320;48.128;11.592;2024-03-17T01:41:54;11.10;99.90
2621;DHT22;1320;48.128;11.592;2024-03-17T01:44:29;11.10;99.90
2621;DHT22;1320;48.128;11.592;2024-03-17T01:46:56;11.00;99.90
2621;DHT22;1320;48.128;11.592;2024-03-17T01:49:23;11.00;99.90
2621;DHT22;1320;48.128;11.592;2024-03-17T01:51:50;11.00;99.90
2621;DHT22;1320;48.128;11.592;2024-03-17T01:54:16;10.90;99.90
2621;DHT22;1320;48.128;11.592;2024-03-17T01:56:42;10.90;99.90
2621;DHT22;1320;48.128;11.592;2024-03-17T01:59:09;10.80;99.90
2621;DHT22;1320;48.128;11.592;2024-03-17T02:01:36;10.80;99.90
2621;DHT22;1320;48.128;11.592;2024-03-17T02:04:03;10.70;99.90
2621;DHT22;1320;48.128;11.592;2024-03-17T02:06:29;10.70;99.90
2621;DHT22;1320;48.128;11.592;2024-03-17T02:08:55;10.70;99.90
2621;DHT22;1320;48.128;11.592;2024-03-17T02:11:32;10.70;99.90
2621;DHT22;1320;48.128;11.592;2024-03-17T02:13:59;10.70;99.90
2621;DHT22;1320;48.128;11.592;2024-03-17T02:16:26;10.70;99.90
2621;DHT22;1320;48.128;11.592;2024-03-17T02:18:56;10.80;99.90
2621;DHT22;1320;48.128;11.592;2024-03-17T02:21:23;10.80;99.90
2621;DHT22;1320;48.128;11.592;2024-03-17T02:23:56;10.70;99.90
2621;DHT22;1320;48.128;11.592;2024-03-17T02:26:23;10.70;99.90
2621;DHT22;1320;48.128;11.592;2024-03-17T02:28:49;10.70;99.90
2621;DHT22;1320;48.128;11.592;2024-03-17T02:31:16;10.70;99.90
2621;DHT22;1320;48.128;11.592;2024-03-17T02:33:43;10.70;99.90
2621;DHT22;1320;48.128;11.592;2024-03-17T02:36:12;10.70;99.90
2621;DHT22;1320;48.128;11.592;2024-03-17T02:38:41;10.70;99.90
2621;DHT22;1320;48.128;11.592;2024-03-17T02:41:26;10.70;99.90
2621;DHT22;1320;48.128;11.592;2024-03-17T02:43:52;10.70;99.90
2621;DHT22;1320;48.128;11.592;2024-03-17T02:46:18;10.70;99.90
2621;DHT22;1320;48.128;11.592;2024-03-17T02:48:46;10.80;99.90
2621;DHT22;1320;48.128;11.592;2024-03-17T02:51:16;10.80;99.90
2621;DHT22;1320;48.128;11.592;2024-03-17T02:53:46;10.80;99.90
2621;DHT22;1320;48.128;11.592;2024-03-17T02:56:13;10.70;99.90
2621;DHT22;1320;48.128;11.592;2024-03-17T02:58:42;10.70;99.90
2621;DHT22;1320;48.128;11.592;2024-03-17T03:01:08;10.80;99.90
2621;DHT22;1320;48.128;11.592;2024-03-17T03:03:37;10.80;99.90
2621;DHT22;1320;48.128;11.592;2024-03-17T03:06:04;10.80;99.90
2621;DHT22;1320;48.128;11.592;2024-03-17T03:08:40;10.80;99.90
2621;DHT22;1320;48.128;11.592;2024-03-17T03:11:11;10.80;99.90
2621;DHT22;1320;48.128;11.592;2024-03-17T03:13:44;10.80;99.90
2621;DHT22;1320;48.128;11.592;2024-03-17T03:16:13;10.80;99.90
2621;DHT22;1320;48.128;11.592;2024-03-17T03:18:41;10.80;99.90
2621;DHT22;1320;48.128;11.592;2024-03-17T03:21:10;10.80;99.90
2621;DHT22;1320;48.128;11.592;2024-03-17T03:23:36;10.70;99.90
2621;DHT22;1320;48.128;11.592;2024-03-17T03:26:03;10.70;99.90
2621;DHT22;1320;48.128;11.592;2024-03-17T03:28:32;10.70;99.90
2621;DHT22;1320;48.128;11.592;2024-03-17T03:30:59;10.60;99.90
2621;DHT22;1320;48.128;11.592;2024-03-17T03:33:25;10.60;99.90
2621;DHT22;1320;48.128;11.592;2024-03-17T03:35:50;10.60;99.90
2621;DHT22;1320;48.128;11.592;2024-03-17T03:38:17;10.50;99.90
2621;DHT22;1320;48.128;11.592;2024-03-17T03:40:44;10.60;99.90
2621;DHT22;1320;48.128;11.592;2024-03-17T03:43:10;10.60;99.90
2621;DHT22;1320;48.128;11.592;2024-03-17T03:45:37;10.60;99.90
2621;DHT22;1320;48.128;11.592;2024-03-17T03:48:03;10.60;99.90
2621;DHT22;1320;48.128;11.592;2024-03-17T03:50:29;10.60;99.90
2621;DHT22;1320;48.128;11.592;2024-03-17T03:52:55;10.60;99.90
2621;DHT22;1320;48.128;11.592;2024-03-17T03:55:21;10.60;99.90
2621;DHT22;1320;48.128;11.592;2024-03-17T03:57:47;10.60;99.90
2621;DHT22;1320;48.128;11.592;2024-03-17T04:00:19;10.60;99.90
2621;DHT22;1320;48.128;11.592;2024-03-17T04:02:50;10.60;99.90
2621;DHT22;1320;48.128;11.592;2024-03-17T04:05:16;10.60;99.90
2621;DHT22;1320;48.128;11.592;2024-03-17T04:07:43;10.60;99.90
2621;DHT22;1320;48.128;11.592;2024-03-17T04:10:11;10.60;99.90
2621;DHT22;1320;48.128;11.592;2024-03-17T04:12:37;10.60;99.90
2621;DHT22;1320;48.128;11.592;2024-03-17T04:15:04;10.60;99.90
2621;DHT22;1320;48.128;11.592;2024-03-17T04:17:32;10.60;99.90
2621;DHT22;1320;48.128;11.592;2024-03-17T04:19:58;10.60;99.90
2621;DHT22;1320;48.128;11.592;2024-03-17T04:22:24;10.60;99.90
2621;DHT22;1320;48.128;11.592;2024-03-17T04:24:51;10.50;99.90
2621;DHT22;1320;48.128;11.592;2024-03-17T04:27:23;10.50;99.90
2621;DHT22;1320;48.128;11.592;2024-03-17T04:29:51;10.50;99.90
2621;DHT22;1320;48.128;11.592;2024-03-17T04:32:17;10.50;99.90
2621;DHT22;1320;48.128;11.592;2024-03-17T04:34:43;10.50;99.90
2621;DHT22;1320;48.128;11.592;2024-03-17T04:37:09;10.50;99.90
2621;DHT22;1320;48.128;11.592;2024-03-17T04:39:42;10.50;99.90
2621;DHT22;1320;48.128;11.592;2024-03-17T04:42:09;10.50;99.90
2621;DHT22;1320;48.128;11.592;2024-03-17T04:44:35;10.50;99.90
2621;DHT22;1320;48.128;11.592;2024-03-17T04:47:01;10.50;99.90
2621;DHT22;1320;48.128;11.592;2024-03-17T04:49:50;10.50;99.90
2621;DHT22;1320;48.128;11.592;2024-03-17T04:52:15;10.50;99.90
2621;DHT22;1320;48.128;11.592;2024-03-17T04:54:42;10.50;99.90
2621;DHT22;1320;48.128;11.592;2024-03-17T04:57:09;10.50;99.90
2621;DHT22;1320;48.128;11.592;2024-03-17T04:59:35;10.50;99.90
2621;DHT22;1320;48.128;11.592;2024-03-17T05:02:01;10.50;99.90
2621;DHT22;1320;48.128;11.592;2024-03-17T05:04:28;10.50;99.90
2621;DHT22;1320;48.128;11.592;2024-03-17T05:06:53;10.50;99.90
2621;DHT22;1320;48.128;11.592;2024-03-17T05:09:19;10.50;99.90
2621;DHT22;1320;48.128;11.592;2024-03-17T05:11:46;10.40;99.90
2621;DHT22;1320;48.128;11.592;2024-03-17T05:14:13;10.40;99.90
2621;DHT22;1320;48.128;11.592;2024-03-17T05:16:39;10.40;99.90
2621;DHT22;1320;48.128;11.592;2024-03-17T05:19:05;10.40;99.90
2621;DHT22;1320;48.128;11.592;2024-03-17T05:21:31;10.40;99.90
2621;DHT22;1320;48.128;11.592;2024-03-17T05:23:57;10.50;99.90
2621;DHT22;1320;48.128;11.592;2024-03-17T05:26:24;10.50;99.90
2621;DHT22;1320;48.128;11.592;2024-03-17T05:28:52;10.50;99.90
2621;DHT22;1320;48.128;11.592;2024-03-17T05:31:19;10.50;99.90
2621;DHT22;1320;48.128;11.592;2024-03-17T05:33:47;10.50;99.90
2621;DHT22;1320;48.128;11.592;2024-03-17T05:36:13;10.60;99.90
2621;DHT22;1320;48.128;11.592;2024-03-17T05:38:39;10.60;99.90
2621;DHT22;1320;48.128;11.592;2024-03-17T05:41:06;10.60;99.90
2621;DHT22;1320;48.128;11.592;2024-03-17T05:43:34;10.60;99.90
2621;DHT22;1320;48.128;11.592;2024-03-17T05:46:05;10.60;99.90
2621;DHT22;1320;48.128;11.592;2024-03-17T05:48:37;10.70;99.90
2621;DHT22;1320;48.128;11.592;2024-03-17T05:51:05;10.70;99.90
2621;DHT22;1320;48.128;11.592;2024-03-17T05:53:31;10.70;99.90
2621;DHT22;1320;48.128;11.592;2024-03-17T05:56:00;10.70;99.90
2621;DHT22;1320;48.128;11.592;2024-03-17T05:58:26;10.80;99.90
2621;DHT22;1320;48.128;11.592;2024-03-17T06:00:52;10.80;99.90
2621;DHT22;1320;48.128;11.592;2024-03-17T06:03:18;10.80;99.90
2621;DHT22;1320;48.128;11.592;2024-03-17T06:05:44;10.90;99.90
2621;DHT22;1320;48.128;11.592;2024-03-17T06:08:13;10.90;99.90
2621;DHT22;1320;48.128;11.592;2024-03-17T06:10:43;10.90;99.90
2621;DHT22;1320;48.128;11.592;2024-03-17T06:13:09;10.90;99.90
2621;DHT22;1320;48.128;11.592;2024-03-17T06:15:39;10.90;99.90
2621;DHT22;1320;48.128;11.592;2024-03-17T06:18:05;10.90;99.90
2621;DHT22;1320;48.128;11.592;2024-03-17T06:20:43;10.90;99.90
2621;DHT22;1320;48.128;11.592;2024-03-17T06:23:09;11.00;99.90
2621;DHT22;1320;48.128;11.592;2024-03-17T06:28:09;11.00;99.90
2621;DHT22;1320;48.128;11.592;2024-03-17T06:30:36;11.00;99.90
2621;DHT22;1320;48.128;11.592;2024-03-17T06:33:02;11.00;99.90
2621;DHT22;1320;48.128;11.592;2024-03-17T06:35:28;11.00;99.90
2621;DHT22;1320;48.128;11.592;2024-03-17T06:37:59;11.00;99.90
2621;DHT22;1320;48.128;11.592;2024-03-17T06:40:25;11.00;99.90
2621;DHT22;1320;48.128;11.592;2024-03-17T06:42:51;11.00;99.90
2621;DHT22;1320;48.128;11.592;2024-03-17T06:45:17;11.10;99.90
2621;DHT22;1320;48.128;11.592;2024-03-17T06:47:46;11.10;99.90
2621;DHT22;1320;48.128;11.592;2024-03-17T06:50:12;11.10;99.90
2621;DHT22;1320;48.128;11.592;2024-03-17T06:52:38;11.20;99.90
2621;DHT22;1320;48.128;11.592;2024-03-17T06:55:04;11.20;99.90
2621;DHT22;1320;48.128;11.592;2024-03-17T06:57:31;11.20;99.90
2621;DHT22;1320;48.128;11.592;2024-03-17T06:59:56;11.30;99.90
2621;DHT22;1320;48.128;11.592;2024-03-17T07:02:22;11.30;99.90
2621;DHT22;1320;48.128;11.592;2024-03-17T07:04:48;11.30;99.90
2621;DHT22;1320;48.128;11.592;2024-03-17T07:07:14;11.40;99.90
2621;DHT22;1320;48.128;11.592;2024-03-17T07:09:41;11.40;99.90
2621;DHT22;1320;48.128;11.592;2024-03-17T07:12:10;11.50;99.90
2621;DHT22;1320;48.128;11.592;2024-03-17T07:14:39;11.60;99.90
2621;DHT22;1320;48.128;11.592;2024-03-17T07:17:05;11.60;99.90
2621;DHT22;1320;48.128;11.592;2024-03-17T07:19:30;11.70;99.90
2621;DHT22;1320;48.128;11.592;2024-03-17T07:21:58;11.80;99.90
2621;DHT22;1320;48.128;11.592;2024-03-17T07:24:23;11.90;99.90
2621;DHT22;1320;48.128;11.592;2024-03-17T07:26:49;11.90;99.90
2621;DHT22;1320;48.128;11.592;2024-03-17T07:29:16;12.10;99.90
2621;DHT22;1320;48.128;11.592;2024-03-17T07:31:42;12.10;99.90
2621;DHT22;1320;48.128;11.592;2024-03-17T07:34:07;12.20;99.90
2621;DHT22;1320;48.128;11.592;2024-03-17T07:36:33;12.30;99.90
2621;DHT22;1320;48.128;11.592;2024-03-17T07:38:59;12.30;99.90
2621;DHT22;1320;48.128;11.592;2024-03-17T07:41:25;12.50;99.90
2621;DHT22;1320;48.128;11.592;2024-03-17T07:43:50;12.60;99.90
2621;DHT22;1320;48.128;11.592;2024-03-17T07:46:16;12.80;99.90
2621;DHT22;1320;48.128;11.592;2024-03-17T07:48:43;12.90;99.90
2621;DHT22;1320;48.128;11.592;2024-03-17T07:51:14;13.10;99.90
2621;DHT22;1320;48.128;11.592;2024-03-17T07:53:43;13.20;99.90
2621;DHT22;1320;48.128;11.592;2024-03-17T07:56:11;13.20;99.90
2621;DHT22;1320;48.128;11.592;2024-03-17T07:58:44;13.20;99.90
2621;DHT22;1320;48.128;11.592;2024-03-17T08:01:12;13.20;99.90
2621;DHT22;1320;48.128;11.592;2024-03-17T08:03:39;13.20;99.90
2621;DHT22;1320;48.128;11.592;2024-03-17T08:06:06;13.30;99.90
2621;DHT22;1320;48.128;11.592;2024-03-17T08:08:33;13.40;99.90
2621;DHT22;1320;48.128;11.592;2024-03-17T08:10:59;13.50;99.90
2621;DHT22;1320;48.128;11.592;2024-03-17T08:13:26;13.60;99.90
2621;DHT22;1320;48.128;11.592;2024-03-17T08:15:59;13.90;99.90
2621;DHT22;1320;48.128;11.592;2024-03-17T08:18:25;14.20;99.90
2621;DHT22;1320;48.128;11.592;2024-03-17T08:20:53;14.30;99.90
2621;DHT22;1320;48.128;11.592;2024-03-17T08:23:24;14.50;99.90
2621;DHT22;1320;48.128;11.592;2024-03-17T08:26:00;14.60;99.90
2621;DHT22;1320;48.128;11.592;2024-03-17T08:28:27;14.80;99.90
2621;DHT22;1320;48.128;11.592;2024-03-17T08:30:53;14.80;99.90
2621;DHT22;1320;48.128;11.592;2024-03-17T08:33:20;14.80;99.90
2621;DHT22;1320;48.128;11.592;2024-03-17T08:36:12;14.80;99.90
2621;DHT22;1320;48.128;11.592;2024-03-17T08:38:42;14.80;99.90
2621;DHT22;1320;48.128;11.592;2024-03-17T08:41:09;14.70;99.90
2621;DHT22;1320;48.128;11.592;2024-03-17T08:43:36;14.50;99.90
2621;DHT22;1320;48.128;11.592;2024-03-17T08:46:04;14.60;99.90
2621;DHT22;1320;48.128;11.592;2024-03-17T08:48:32;14.70;99.90
2621;DHT22;1320;48.128;11.592;2024-03-17T08:50:59;15.10;99.90
2621;DHT22;1320;48.128;11.592;2024-03-17T08:53:25;15.60;99.90
2621;DHT22;1320;48.128;11.592;2024-03-17T08:55:52;16.20;99.90
2621;DHT22;1320;48.128;11.592;2024-03-17T08:58:18;16.70;99.90
2621;DHT22;1320;48.128;11.592;2024-03-17T09:00:44;17.30;99.90
2621;DHT22;1320;48.128;11.592;2024-03-17T09:03:11;17.80;99.90
2621;DHT22;1320;48.128;11.592;2024-03-17T09:05:38;18.20;99.90
2621;DHT22;1320;48.128;11.592;2024-03-17T09:08:05;18.80;99.90
2621;DHT22;1320;48.128;11.592;2024-03-17T09:10:42;19.20;99.90
2621;DHT22;1320;48.128;11.592;2024-03-17T09:13:19;19.40;99.90
2621;DHT22;1320;48.128;11.592;2024-03-17T09:15:51;19.30;99.90
2621;DHT22;1320;48.128;11.592;2024-03-17T09:18:17;19.30;99.90
2621;DHT22;1320;48.128;11.592;2024-03-17T09:20:43;19.30;99.90
2621;DHT22;1320;48.128;11.592;2024-03-17T09:23:09;19.20;99.90
2621;DHT22;1320;48.128;11.592;2024-03-17T09:25:34;19.20;99.90
2621;DHT22;1320;48.128;11.592;2024-03-17T09:28:00;19.30;99.90
2621;DHT22;1320;48.128;11.592;2024-03-17T09:30:26;19.80;99.90
2621;DHT22;1320;48.128;11.592;2024-03-17T09:32:53;20.40;99.90
2621;DHT22;1320;48.128;11.592;2024-03-17T09:35:18;21.00;99.90
2621;DHT22;1320;48.128;11.592;2024-03-17T09:37:44;21.40;98.20
2621;DHT22;1320;48.128;11.592;2024-03-17T09:40:14;21.80;97.10
2621;DHT22;1320;48.128;11.592;2024-03-17T09:42:41;22.10;96.50
2621;DHT22;1320;48.128;11.592;2024-03-17T09:45:10;22.40;96.30
2621;DHT22;1320;48.128;11.592;2024-03-17T09:47:36;22.60;95.40
2621;DHT22;1320;48.128;11.592;2024-03-17T09:50:02;22.80;94.50
2621;DHT22;1320;48.128;11.592;2024-03-17T09:52:29;22.60;93.90
2621;DHT22;1320;48.128;11.592;2024-03-17T09:55:06;22.00;94.00
2621;DHT22;1320;48.128;11.592;2024-03-17T09:57:36;21.20;94.90
2621;DHT22;1320;48.128;11.592;2024-03-17T10:00:09;20.90;95.70
2621;DHT22;1320;48.128;11.592;2024-03-17T10:02:45;20.90;95.10
2621;DHT22;1320;48.128;11.592;2024-03-17T10:05:24;21.00;94.70
2621;DHT22;1320;48.128;11.592;2024-03-17T10:07:51;20.60;94.90
2621;DHT22;1320;48.128;11.592;2024-03-17T10:10:21;20.30;94.80
2621;DHT22;1320;48.128;11.592;2024-03-17T10:12:50;19.90;95.30
2621;DHT22;1320;48.128;11.592;2024-03-17T10:15:19;19.50;95.30
2621;DHT22;1320;48.128;11.592;2024-03-17T10:17:49;19.30;96.00
2621;DHT22;1320;48.128;11.592;2024-03-17T10:20:17;19.10;96.60
2621;DHT22;1320;48.128;11.592;2024-03-17T10:22:59;18.80;96.60
2621;DHT22;1320;48.128;11.592;2024-03-17T10:25:26;18.50;97.00
2621;DHT22;1320;48.128;11.592;2024-03-17T10:27:55;18.30;97.30
2621;DHT22;1320;48.128;11.592;2024-03-17T10:30:23;18.00;97.40
2621;DHT22;1320;48.128;11.592;2024-03-17T10:32:58;17.80;98.00
2621;DHT22;1320;48.128;11.592;2024-03-17T10:35:37;17.70;98.60
2621;DHT22;1320;48.128;11.592;2024-03-17T10:38:09;17.80;97.60
2621;DHT22;1320;48.128;11.592;2024-03-17T10:40:39;17.80;96.80
2621;DHT22;1320;48.128;11.592;2024-03-17T10:43:06;18.00;97.30
2621;DHT22;1320;48.128;11.592;2024-03-17T10:45:33;18.00;97.20
2621;DHT22;1320;48.128;11.592;2024-03-17T10:48:07;18.00;97.00
2621;DHT22;1320;48.128;11.592;2024-03-17T10:50:38;18.00;96.80
2621;DHT22;1320;48.128;11.592;2024-03-17T10:53:06;17.90;96.20
2621;DHT22;1320;48.128;11.592;2024-03-17T10:55:43;17.90;96.30
2621;DHT22;1320;48.128;11.592;2024-03-17T10:58:33;17.80;96.30
2621;DHT22;1320;48.128;11.592;2024-03-17T11:01:01;18.00;95.80
2621;DHT22;1320;48.128;11.592;2024-03-17T11:03:33;18.20;95.50
2621;DHT22;1320;48.128;11.592;2024-03-17T11:06:02;18.50;94.40
2621;DHT22;1320;48.128;11.592;2024-03-17T11:08:31;18.80;94.50
2621;DHT22;1320;48.128;11.592;2024-03-17T11:10:58;19.00;93.90
2621;DHT22;1320;48.128;11.592;2024-03-17T11:13:28;19.30;93.90
2621;DHT22;1320;48.128;11.592;2024-03-17T11:15:55;19.60;93.10
2621;DHT22;1320;48.128;11.592;2024-03-17T11:21:05;19.80;93.00
2621;DHT22;1320;48.128;11.592;2024-03-17T11:23:41;19.80;92.60
2621;DHT22;1320;48.128;11.592;2024-03-17T11:26:08;19.70;92.60
2621;DHT22;1320;48.128;11.592;2024-03-17T11:33:57;19.30;92.70
2621;DHT22;1320;48.128;11.592;2024-03-17T11:38:56;19.30;93.40
2621;DHT22;1320;48.128;11.592;2024-03-17T11:46:58;19.20;93.40
2621;DHT22;1320;48.128;11.592;2024-03-17T11:52:01;19.20;92.90
2621;DHT22;1320;48.128;11.592;2024-03-17T11:54:30;19.10;93.30
2621;DHT22;1320;48.128;11.592;2024-03-17T11:57:01;19.00;93.30
2621;DHT22;1320;48.128;11.592;2024-03-17T11:59:27;19.00;93.60
2621;DHT22;1320;48.128;11.592;2024-03-17T12:01:54;19.10;93.10
2621;DHT22;1320;48.128;11.592;2024-03-17T12:04:21;19.10;93.00
2621;DHT22;1320;48.128;11.592;2024-03-17T12:06:51;19.10;92.60
2621;DHT22;1320;48.128;11.592;2024-03-17T12:09:23;19.00;92.70
2621;DHT22;1320;48.128;11.592;2024-03-17T12:12:02;19.00;92.90
2621;DHT22;1320;48.128;11.592;2024-03-17T12:14:29;18.90;93.00
2621;DHT22;1320;48.128;11.592;2024-03-17T12:16:57;18.80;92.80
2621;DHT22;1320;48.128;11.592;2024-03-17T12:19:24;18.70;93.10
2621;DHT22;1320;48.128;11.592;2024-03-17T12:21:52;18.60;92.90
2621;DHT22;1320;48.128;11.592;2024-03-17T12:24:24;18.60;92.80
2621;DHT22;1320;48.128;11.592;2024-03-17T12:26:52;18.40;92.80
2621;DHT22;1320;48.128;11.592;2024-03-17T12:29:26;18.30;93.00
2621;DHT22;1320;48.128;11.592;2024-03-17T12:31:54;18.10;93.30
2621;DHT22;1320;48.128;11.592;2024-03-17T12:34:21;18.10;93.50
2621;DHT22;1320;48.128;11.592;2024-03-17T12:36:48;18.10;93.60
2621;DHT22;1320;48.128;11.592;2024-03-17T12:39:25;18.10;93.60
2621;DHT22;1320;48.128;11.592;2024-03-17T12:42:10;18.00;94.20
2621;DHT22;1320;48.128;11.592;2024-03-17T12:44:48;18.10;93.70
2621;DHT22;1320;48.128;11.592;2024-03-17T12:47:18;18.00;93.70
2621;DHT22;1320;48.128;11.592;2024-03-17T12:49:49;18.00;93.60
2621;DHT22;1320;48.128;11.592;2024-03-17T12:52:20;18.00;94.20
2621;DHT22;1320;48.128;11.592;2024-03-17T12:55:02;18.00;94.40
2621;DHT22;1320;48.128;11.592;2024-03-17T12:57:49;18.00;94.30
2621;DHT22;1320;48.128;11.592;2024-03-17T13:00:38;18.10;94.10
2621;DHT22;1320;48.128;11.592;2024-03-17T13:03:05;18.10;94.20
2621;DHT22;1320;48.128;11.592;2024-03-17T13:05:32;18.20;94.40
2621;DHT22;1320;48.128;11.592;2024-03-17T13:07:58;18.30;94.30
2621;DHT22;1320;48.128;11.592;2024-03-17T13:10:29;18.40;94.30
2621;DHT22;1320;48.128;11.592;2024-03-17T13:13:08;18.60;94.40
2621;DHT22;1320;48.128;11.592;2024-03-17T13:15:35;18.60;94.20
2621;DHT22;1320;48.128;11.592;2024-03-17T13:18:02;18.70;94.30
2621;DHT22;1320;48.128;11.592;2024-03-17T13:20:29;18.70;94.20
2621;DHT22;1320;48.128;11.592;2024-03-17T13:22:56;18.70;93.60
2621;DHT22;1320;48.128;11.592;2024-03-17T13:25:24;18.60;94.00
2621;DHT22;1320;48.128;11.592;2024-03-17T13:27:53;18.60;94.00
2621;DHT22;1320;48.128;11.592;2024-03-17T13:30:20;18.60;93.40
2621;DHT22;1320;48.128;11.592;2024-03-17T13:32:53;18.40;93.40
2621;DHT22;1320;48.128;11.592;2024-03-17T13:35:25;18.30;93.80
2621;DHT22;1320;48.128;11.592;2024-03-17T13:37:52;18.30;93.90
2621;DHT22;1320;48.128;11.592;2024-03-17T13:40:20;18.20;93.80
2621;DHT22;1320;48.128;11.592;2024-03-17T13:42:46;18.10;94.30
2621;DHT22;1320;48.128;11.592;2024-03-17T13:45:13;18.20;94.20
2621;DHT22;1320;48.128;11.592;2024-03-17T13:47:52;18.20;94.10
2621;DHT22;1320;48.128;11.592;2024-03-17T13:50:19;18.30;94.10
2621;DHT22;1320;48.128;11.592;2024-03-17T13:52:45;18.20;94.10
2621;DHT22;1320;48.128;11.592;2024-03-17T13:55:28;18.30;94.50
2621;DHT22;1320;48.128;11.592;2024-03-17T13:57:56;18.20;94.10
2621;DHT22;1320;48.128;11.592;2024-03-17T14:00:27;18.10;94.20
2621;DHT22;1320;48.128;11.592;2024-03-17T14:02:55;18.10;93.90
2621;DHT22;1320;48.128;11.592;2024-03-17T14:05:22;18.10;94.30
2621;DHT22;1320;48.128;11.592;2024-03-17T14:07:49;18.20;94.40
2621;DHT22;1320;48.128;11.592;2024-03-17T14:10:17;18.20;94.50
2621;DHT22;1320;48.128;11.592;2024-03-17T14:12:43;18.30;94.50
2621;DHT22;1320;48.128;11.592;2024-03-17T14:15:11;18.40;93.90
2621;DHT22;1320;48.128;11.592;2024-03-17T14:17:41;18.40;93.90
2621;DHT22;1320;48.128;11.592;2024-03-17T14:20:07;18.40;93.60
2621;DHT22;1320;48.128;11.592;2024-03-17T14:22:38;18.30;93.80
2621;DHT22;1320;48.128;11.592;2024-03-17T14:25:08;18.30;94.10
2621;DHT22;1320;48.128;11.592;2024-03-17T14:27:36;18.20;94.60
2621;DHT22;1320;48.128;11.592;2024-03-17T14:30:02;18.00;94.70
2621;DHT22;1320;48.128;11.592;2024-03-17T14:32:29;18.00;95.20
2621;DHT22;1320;48.128;11.592;2024-03-17T14:34:56;17.90;94.80
2621;DHT22;1320;48.128;11.592;2024-03-17T14:37:21;17.90;94.90
2621;DHT22;1320;48.128;11.592;2024-03-17T14:39:54;17.80;95.40
2621;DHT22;1320;48.128;11.592;2024-03-17T14:42:20;17.80;95.30
2621;DHT22;1320;48.128;11.592;2024-03-17T14:44:46;17.70;95.20
2621;DHT22;1320;48.128;11.592;2024-03-17T14:47:15;17.70;95.40
2621;DHT22;1320;48.128;11.592;2024-03-17T14:49:41;17.60;95.40
2621;DHT22;1320;48.128;11.592;2024-03-17T14:52:08;17.60;95.70
2621;DHT22;1320;48.128;11.592;2024-03-17T14:54:34;17.60;95.80
2621;DHT22;1320;48.128;11.592;2024-03-17T14:57:00;17.60;95.60
2621;DHT22;1320;48.128;11.592;2024-03-17T14:59:26;17.60;95.60
2621;DHT22;1320;48.128;11.592;2024-03-17T15:01:52;17.50;95.80
2621;DHT22;1320;48.128;11.592;2024-03-17T15:04:17;17.60;95.60
2621;DHT22;1320;48.128;11.592;2024-03-17T15:06:44;17.60;95.60
2621;DHT22;1320;48.128;11.592;2024-03-17T15:09:10;17.50;95.40
2621;DHT22;1320;48.128;11.592;2024-03-17T15:11:37;17.30;95.30
2621;DHT22;1320;48.128;11.592;2024-03-17T15:14:03;17.10;95.60
2621;DHT22;1320;48.128;11.592;2024-03-17T15:16:33;17.00;96.00
2621;DHT22;1320;48.128;11.592;2024-03-17T15:18:59;17.00;96.10
2621;DHT22;1320;48.128;11.592;2024-03-17T15:21:25;16.90;96.20
2621;DHT22;1320;48.128;11.592;2024-03-17T15:23:52;16.80;96.20
2621;DHT22;1320;48.128;11.592;2024-03-17T15:26:17;16.80;96.50
2621;DHT22;1320;48.128;11.592;2024-03-17T15:28:45;16.80;96.50
2621;DHT22;1320;48.128;11.592;2024-03-17T15:31:11;16.80;96.40
2621;DHT22;1320;48.128;11.592;2024-03-17T15:33:38;16.80;96.50
2621;DHT22;1320;48.128;11.592;2024-03-17T15:36:07;16.80;96.70
2621;DHT22;1320;48.128;11.592;2024-03-17T15:38:37;16.70;96.60
2621;DHT22;1320;48.128;11.592;2024-03-17T15:41:07;16.70;96.50
2621;DHT22;1320;48.128;11.592;2024-03-17T15:43:36;16.60;96.60
2621;DHT22;1320;48.128;11.592;2024-03-17T15:46:15;16.50;96.90
2621;DHT22;1320;48.128;11.592;2024-03-17T15:48:42;16.40;97.10
2621;DHT22;1320;48.128;11.592;2024-03-17T15:51:07;16.50;97.10
2621;DHT22;1320;48.128;11.592;2024-03-17T15:53:33;16.40;97.30
2621;DHT22;1320;48.128;11.592;2024-03-17T15:56:02;16.40;97.50
2621;DHT22;1320;48.128;11.592;2024-03-17T15:58:29;16.40;97.60
2621;DHT22;1320;48.128;11.592;2024-03-17T16:00:56;16.40;97.50
2621;DHT22;1320;48.128;11.592;2024-03-17T16:03:31;16.40;97.70
2621;DHT22;1320;48.128;11.592;2024-03-17T16:08:45;16.40;97.90
2621;DHT22;1320;48.128;11.592;2024-03-17T16:11:13;16.40;97.90
2621;DHT22;1320;48.128;11.592;2024-03-17T16:13:43;16.40;97.90
2621;DHT22;1320;48.128;11.592;2024-03-17T16:16:17;16.40;97.80